createdAt,value
2022-08-05T00:00:16.300Z,34.97
2022-08-05T00:01:49.118Z,35.46
2022-08-05T00:03:00.177Z,35.82
2022-08-05T00:04:09.033Z,35.89
2022-08-05T00:06:05.388Z,35.97
2022-08-05T00:06:57.558Z,36.00
2022-08-05T00:08:10.739Z,36.51
2022-08-05T00:09:40.401Z,36.77
2022-08-05T00:10:56.786Z,36.87
2022-08-05T00:12:13.188Z,36.73
2022-08-05T00:13:38.128Z,37.11
2022-08-05T00:14:51.633Z,37.08
2022-08-05T00:16:03.405Z,37.20
2022-08-05T00:17:19.538Z,37.46
2022-08-05T00:18:29.145Z,37.57
2022-08-05T00:19:45.803Z,37.43
2022-08-05T00:21:11.312Z,37.66
2022-08-05T00:22:22.803Z,37.84
2022-08-05T00:23:46.345Z,38.17
2022-08-05T00:24:58.994Z,38.52
2022-08-05T00:26:10.577Z,38.55
2022-08-05T00:27:18.958Z,38.88
2022-08-05T00:28:29.592Z,39.29
2022-08-05T00:29:39.955Z,39.52
2022-08-05T00:30:52.057Z,39.79
2022-08-05T00:32:12.324Z,39.93
2022-08-05T00:34:55.925Z,39.90
2022-08-05T00:35:05.689Z,39.86
2022-08-05T00:37:11.169Z,40.15
2022-08-05T00:37:55.693Z,40.52
2022-08-05T00:39:06.735Z,40.24
2022-08-05T00:40:28.409Z,40.16
2022-08-05T00:41:51.858Z,40.26
2022-08-05T00:43:15.258Z,40.17
2022-08-05T00:44:30.797Z,40.61
2022-08-05T00:45:45.738Z,40.70
2022-08-05T00:47:03.961Z,40.55
2022-08-05T00:48:17.510Z,40.56
2022-08-05T00:49:28.117Z,40.59
2022-08-05T00:50:44.278Z,40.62
2022-08-05T00:51:57.310Z,40.66
2022-08-05T00:53:09.507Z,40.52
2022-08-05T00:54:38.235Z,40.84
2022-08-05T00:55:46.623Z,40.45
2022-08-05T00:56:58.012Z,40.58
2022-08-05T00:58:07.852Z,40.66
2022-08-05T00:59:22.446Z,40.83
2022-08-05T01:00:36.236Z,40.78
2022-08-05T01:01:48.979Z,40.60
2022-08-05T01:02:59.684Z,40.65
2022-08-05T01:04:13.858Z,40.70
2022-08-05T01:05:22.900Z,40.51
2022-08-05T01:06:32.830Z,40.55
2022-08-05T01:08:41.409Z,40.74
2022-08-05T01:09:11.461Z,40.88
2022-08-05T01:10:20.660Z,40.99
2022-08-05T01:11:37.770Z,41.35
2022-08-05T01:13:05.193Z,41.26
2022-08-05T01:14:28.470Z,41.27
2022-08-05T01:15:40.799Z,41.17
2022-08-05T01:17:11.883Z,41.02
2022-08-05T01:18:27.503Z,41.14
2022-08-05T01:20:00.949Z,40.89
2022-08-05T01:21:12.257Z,40.87
2022-08-05T01:22:52.302Z,41.40
2022-08-05T01:24:14.462Z,41.59
2022-08-05T01:25:41.639Z,41.30
2022-08-05T01:27:19.338Z,41.23
2022-08-05T01:28:39.501Z,41.47
2022-08-05T01:29:57.537Z,41.68
2022-08-05T01:31:12.112Z,41.66
2022-08-05T01:32:23.020Z,41.74
2022-08-05T01:33:40.291Z,41.67
2022-08-05T01:35:13.373Z,41.89
2022-08-05T01:36:57.421Z,42.16
2022-08-05T01:38:10.799Z,42.31
2022-08-05T01:39:47.205Z,42.42
2022-08-05T01:41:01.736Z,42.64
2022-08-05T01:42:13.691Z,42.95
2022-08-05T01:43:24.161Z,42.98
2022-08-05T01:44:34.496Z,43.29
2022-08-05T01:45:44.615Z,43.32
2022-08-05T01:47:09.606Z,43.43
2022-08-05T01:48:18.759Z,43.44
2022-08-05T01:50:00.296Z,43.36
2022-08-05T01:51:00.122Z,43.37
2022-08-05T01:52:22.056Z,43.54
2022-08-05T01:53:55.053Z,43.53
2022-08-05T01:55:06.399Z,43.86
2022-08-05T01:58:09.770Z,44.08
2022-08-05T01:58:11.543Z,43.98
2022-08-05T01:59:16.548Z,44.18
2022-08-05T02:00:30.560Z,44.19
2022-08-05T02:01:40.680Z,44.19
2022-08-05T02:03:29.261Z,44.03
2022-08-05T02:04:42.000Z,44.35
2022-08-05T02:06:01.073Z,44.56
2022-08-05T02:07:21.578Z,44.48
2022-08-05T02:08:33.614Z,44.60
2022-08-05T02:09:46.041Z,44.57
2022-08-05T02:10:56.053Z,44.72
2022-08-05T02:12:28.019Z,44.55
2022-08-05T02:14:21.782Z,44.50
2022-08-05T02:15:39.796Z,44.76
2022-08-05T02:16:58.276Z,45.09
2022-08-05T02:18:34.268Z,45.26
2022-08-05T02:19:55.112Z,45.51
2022-08-05T02:21:15.150Z,45.57
2022-08-05T02:22:28.883Z,45.74
2022-08-05T02:23:43.037Z,45.76
2022-08-05T02:25:07.696Z,46.09
2022-08-05T02:26:21.807Z,46.27
2022-08-05T02:27:59.778Z,46.56
2022-08-05T02:29:01.114Z,46.59
2022-08-05T02:30:17.053Z,46.71
2022-08-05T02:31:29.249Z,47.06
2022-08-05T02:32:50.848Z,47.07
2022-08-05T02:34:09.904Z,47.15
2022-08-05T02:35:33.005Z,47.17
2022-08-05T02:36:54.715Z,47.11
2022-08-05T02:38:04.031Z,47.13
2022-08-05T02:39:14.035Z,47.35
2022-08-05T02:40:22.905Z,47.56
2022-08-05T02:41:43.177Z,47.62
2022-08-05T02:43:07.318Z,47.71
2022-08-05T02:44:19.629Z,47.50
2022-08-05T02:45:52.239Z,47.56
2022-08-05T02:47:05.934Z,47.31
2022-08-05T02:48:17.480Z,47.17
2022-08-05T02:49:27.620Z,47.40
2022-08-05T02:50:48.939Z,47.39
2022-08-05T02:52:03.947Z,47.43
2022-08-05T02:53:18.969Z,47.51
2022-08-05T02:54:34.955Z,47.73
2022-08-05T02:55:52.017Z,47.69
2022-08-05T02:57:03.938Z,47.90
2022-08-05T02:58:20.088Z,47.79
2022-08-05T02:59:30.945Z,47.96
2022-08-05T03:01:00.558Z,47.99
2022-08-05T03:02:11.888Z,48.08
2022-08-05T03:03:23.391Z,48.05
2022-08-05T03:04:32.097Z,48.29
2022-08-05T03:06:54.185Z,48.29
2022-08-05T03:07:24.729Z,48.35
2022-08-05T03:08:45.118Z,48.57
2022-08-05T03:09:54.015Z,48.68
2022-08-05T03:11:55.263Z,48.75
2022-08-05T03:12:42.721Z,48.83
2022-08-05T03:14:02.825Z,48.86
2022-08-05T03:15:13.067Z,48.98
2022-08-05T03:16:21.884Z,49.04
2022-08-05T03:17:31.421Z,49.07
2022-08-05T03:18:39.679Z,48.94
2022-08-05T03:19:52.948Z,49.25
2022-08-05T03:21:04.397Z,49.06
2022-08-05T03:22:19.062Z,49.27
2022-08-05T03:23:42.135Z,49.49
2022-08-05T03:24:56.700Z,49.65
2022-08-05T03:26:31.715Z,49.84
2022-08-05T03:27:58.898Z,49.99
2022-08-05T03:29:12.332Z,50.23
2022-08-05T03:30:30.283Z,50.34
2022-08-05T03:31:56.570Z,50.23
2022-08-05T03:33:08.751Z,50.55
2022-08-05T03:34:17.929Z,50.78
2022-08-05T03:35:28.878Z,50.96
2022-08-05T03:36:37.256Z,50.92
2022-08-05T03:37:53.462Z,50.73
2022-08-05T03:39:12.935Z,50.97
2022-08-05T03:40:32.059Z,51.11
2022-08-05T03:41:46.677Z,51.21
2022-08-05T03:42:58.934Z,51.43
2022-08-05T03:44:12.199Z,51.36
2022-08-05T03:45:21.857Z,51.47
2022-08-05T03:46:32.625Z,51.52
2022-08-05T03:47:41.367Z,51.62
2022-08-05T03:48:50.126Z,51.76
2022-08-05T03:50:01.634Z,51.77
2022-08-05T03:52:38.771Z,51.67
2022-08-05T03:56:01.164Z,51.78
2022-08-05T03:56:09.782Z,51.83
2022-08-05T03:56:46.309Z,51.99
2022-08-05T03:57:58.505Z,52.05
2022-08-05T03:59:13.043Z,52.10
2022-08-05T04:00:31.253Z,52.20
2022-08-05T04:01:42.389Z,52.35
2022-08-05T04:02:58.519Z,52.35
2022-08-05T04:04:10.683Z,52.16
2022-08-05T04:05:23.144Z,52.05
2022-08-05T04:06:31.120Z,52.30
2022-08-05T04:07:57.151Z,52.21
2022-08-05T04:09:08.812Z,52.27
2022-08-05T04:10:20.069Z,52.29
2022-08-05T04:11:47.586Z,52.28
2022-08-05T04:12:59.419Z,52.47
2022-08-05T04:14:10.583Z,52.51
2022-08-05T04:15:32.821Z,52.56
2022-08-05T04:16:42.863Z,52.74
2022-08-05T04:17:56.104Z,52.65
2022-08-05T04:19:10.595Z,52.81
2022-08-05T04:20:24.872Z,52.70
2022-08-05T04:22:08.671Z,52.70
2022-08-05T04:23:06.127Z,52.81
2022-08-05T04:24:22.681Z,52.87
2022-08-05T04:25:56.693Z,52.90
2022-08-05T04:27:01.322Z,52.94
2022-08-05T04:28:12.947Z,52.97
2022-08-05T04:29:21.698Z,52.96
2022-08-05T04:30:31.450Z,52.78
2022-08-05T04:31:42.930Z,52.82
2022-08-05T04:32:51.091Z,52.79
2022-08-05T04:34:18.941Z,52.81
2022-08-05T04:36:11.394Z,52.70
2022-08-05T04:36:57.620Z,52.69
2022-08-05T04:38:09.560Z,52.62
2022-08-05T04:39:27.870Z,52.53
2022-08-05T04:40:37.823Z,52.54
2022-08-05T04:41:56.699Z,52.62
2022-08-05T04:43:05.622Z,52.66
2022-08-05T04:44:29.566Z,52.52
2022-08-05T04:45:48.814Z,52.56
2022-08-05T04:47:09.335Z,52.44
2022-08-05T04:48:27.313Z,52.45
2022-08-05T04:50:02.419Z,52.54
2022-08-05T04:51:11.395Z,52.65
2022-08-05T04:52:19.879Z,52.61
2022-08-05T04:53:29.424Z,52.64
2022-08-05T04:54:44.365Z,52.76
2022-08-05T04:56:33.578Z,52.78
2022-08-05T04:57:22.402Z,52.92
2022-08-05T04:58:38.283Z,53.22
2022-08-05T04:59:49.228Z,53.38
2022-08-05T05:00:58.734Z,53.36
2022-08-05T05:02:36.870Z,53.42
2022-08-05T05:03:41.882Z,53.65
2022-08-05T05:04:52.542Z,53.66
2022-08-05T05:06:38.901Z,53.84
2022-08-05T05:07:55.224Z,53.81
2022-08-05T05:09:08.698Z,54.02
2022-08-05T05:10:16.923Z,54.34
2022-08-05T05:11:41.610Z,54.33
2022-08-05T05:12:59.219Z,54.60
2022-08-05T05:14:16.088Z,54.78
2022-08-05T05:16:01.903Z,55.04
2022-08-05T05:16:55.712Z,55.28
2022-08-05T05:18:04.061Z,55.41
2022-08-05T05:19:19.157Z,55.49
2022-08-05T05:20:33.494Z,55.60
2022-08-05T05:21:41.914Z,55.69
2022-08-05T05:22:57.789Z,55.75
2022-08-05T05:24:09.129Z,55.82
2022-08-05T05:25:17.942Z,55.95
2022-08-05T05:26:28.098Z,56.17
2022-08-05T05:27:45.796Z,56.27
2022-08-05T05:28:59.405Z,56.31
2022-08-05T05:30:15.294Z,56.38
2022-08-05T05:31:35.773Z,56.38
2022-08-05T05:32:42.436Z,56.40
2022-08-05T05:34:01.670Z,56.46
2022-08-05T05:35:11.818Z,56.57
2022-08-05T05:36:28.540Z,56.53
2022-08-05T05:38:00.263Z,56.72
2022-08-05T05:39:10.944Z,56.73
2022-08-05T05:40:22.579Z,56.76
2022-08-05T05:41:40.824Z,57.09
2022-08-05T05:42:56.672Z,57.09
2022-08-05T05:44:05.319Z,56.98
2022-08-05T05:45:36.418Z,57.27
2022-08-05T05:46:57.934Z,57.07
2022-08-05T05:48:09.716Z,57.04
2022-08-05T05:49:23.107Z,57.08
2022-08-05T05:50:33.889Z,57.27
2022-08-05T05:51:49.911Z,57.45
2022-08-05T05:53:02.798Z,57.57
2022-08-05T05:54:49.870Z,57.75
2022-08-05T05:56:00.500Z,57.84
2022-08-05T05:57:13.742Z,57.84
2022-08-05T05:58:31.742Z,57.83
2022-08-05T05:59:42.148Z,57.90
2022-08-05T06:00:52.496Z,58.20
2022-08-05T06:02:01.502Z,58.08
2022-08-05T06:03:28.298Z,57.95
2022-08-05T06:04:40.583Z,58.09
2022-08-05T06:05:53.913Z,58.19
2022-08-05T06:07:05.795Z,58.41
2022-08-05T06:08:13.991Z,58.28
2022-08-05T06:09:59.964Z,58.37
2022-08-05T06:11:12.274Z,58.49
2022-08-05T06:12:21.369Z,58.47
2022-08-05T06:13:29.892Z,58.60
2022-08-05T06:14:50.125Z,58.80
2022-08-05T06:16:28.238Z,58.67
2022-08-05T06:17:30.904Z,58.61
2022-08-05T06:18:42.087Z,58.95
2022-08-05T06:19:59.514Z,59.07
2022-08-05T06:21:18.591Z,59.10
2022-08-05T06:22:28.965Z,58.98
2022-08-05T06:23:44.060Z,59.43
2022-08-05T06:24:55.449Z,59.37
2022-08-05T06:26:13.486Z,59.39
2022-08-05T06:28:12.288Z,59.35
2022-08-05T06:29:03.331Z,59.38
2022-08-05T06:30:20.029Z,59.45
2022-08-05T06:31:32.309Z,59.59
2022-08-05T06:32:41.524Z,59.76
2022-08-05T06:34:07.817Z,59.69
2022-08-05T06:36:02.819Z,59.86
2022-08-05T06:36:57.960Z,59.95
2022-08-05T06:38:11.557Z,59.97
2022-08-05T06:39:22.097Z,60.18
2022-08-05T06:40:35.396Z,60.37
2022-08-05T06:41:55.914Z,60.35
2022-08-05T06:43:58.245Z,60.44
2022-08-05T06:44:38.222Z,60.69
2022-08-05T06:46:06.707Z,60.63
2022-08-05T06:48:11.304Z,60.60
2022-08-05T06:48:55.652Z,60.71
2022-08-05T06:50:06.750Z,60.95
2022-08-05T06:51:25.332Z,61.13
2022-08-05T06:52:40.342Z,61.12
2022-08-05T06:53:53.582Z,61.10
2022-08-05T06:55:05.405Z,61.03
2022-08-05T06:56:25.825Z,60.96
2022-08-05T06:58:02.662Z,61.13
2022-08-05T06:59:11.960Z,61.13
2022-08-05T07:00:24.752Z,61.07
2022-08-05T07:01:33.755Z,61.02
2022-08-05T07:02:48.953Z,61.16
2022-08-05T07:04:03.783Z,61.18
2022-08-05T07:05:18.613Z,61.01
2022-08-05T07:06:27.777Z,61.36
2022-08-05T07:07:43.778Z,61.28
2022-08-05T07:08:55.654Z,61.42
2022-08-05T07:10:07.044Z,61.45
2022-08-05T07:11:22.269Z,61.48
2022-08-05T07:12:50.717Z,61.44
2022-08-05T07:14:29.303Z,61.38
2022-08-05T07:16:01.821Z,61.42
2022-08-05T07:18:00.619Z,61.66
2022-08-05T07:18:49.900Z,61.60
2022-08-05T07:20:31.524Z,61.82
2022-08-05T07:21:28.729Z,61.64
2022-08-05T07:22:59.209Z,61.42
2022-08-05T07:24:11.490Z,61.55
2022-08-05T07:25:54.969Z,61.74
2022-08-05T07:26:50.385Z,61.56
2022-08-05T07:28:05.903Z,61.80
2022-08-05T07:29:16.975Z,61.89
2022-08-05T07:30:32.032Z,61.96
2022-08-05T07:31:54.913Z,62.14
2022-08-05T07:33:09.968Z,62.30
2022-08-05T07:34:21.228Z,62.33
2022-08-05T07:36:02.938Z,62.38
2022-08-05T07:37:08.084Z,62.30
2022-08-05T07:38:32.814Z,62.34
2022-08-05T07:40:26.510Z,62.46
2022-08-05T07:42:14.748Z,62.41
2022-08-05T07:42:52.068Z,62.47
2022-08-05T07:44:01.033Z,62.46
2022-08-05T07:45:12.065Z,62.68
2022-08-05T07:46:25.541Z,62.71
2022-08-05T07:47:42.217Z,62.61
2022-08-05T07:49:02.985Z,62.51
2022-08-05T07:50:16.817Z,62.69
2022-08-05T07:51:36.821Z,62.91
2022-08-05T07:52:46.731Z,62.94
2022-08-05T07:53:57.934Z,62.86
2022-08-05T07:55:16.097Z,62.73
2022-08-05T07:57:01.344Z,62.61
2022-08-05T07:58:17.607Z,62.70
2022-08-05T07:59:41.060Z,62.94
2022-08-05T08:00:52.466Z,62.90
2022-08-05T08:02:00.643Z,62.78
2022-08-05T08:03:17.281Z,62.97
2022-08-05T08:04:38.104Z,63.19
2022-08-05T08:05:52.829Z,63.32
2022-08-05T08:07:05.435Z,63.48
2022-08-05T08:08:19.966Z,63.66
2022-08-05T08:09:29.639Z,63.68
2022-08-05T08:10:40.283Z,63.75
2022-08-05T08:12:00.163Z,63.63
2022-08-05T08:13:12.397Z,63.78
2022-08-05T08:14:22.478Z,63.63
2022-08-05T08:16:33.670Z,63.55
2022-08-05T08:17:02.272Z,63.77
2022-08-05T08:18:14.029Z,63.82
2022-08-05T08:20:21.790Z,63.82
2022-08-05T08:21:01.805Z,63.79
2022-08-05T08:22:16.061Z,63.73
2022-08-05T08:24:01.005Z,64.03
2022-08-05T08:24:56.000Z,64.27
2022-08-05T08:26:15.609Z,64.50
2022-08-05T08:27:26.746Z,64.47
2022-08-05T08:28:55.079Z,64.45
2022-08-05T08:30:30.027Z,64.43
2022-08-05T08:31:38.154Z,64.25
2022-08-05T08:32:58.102Z,64.15
2022-08-05T08:34:12.878Z,64.18
2022-08-05T08:35:22.662Z,64.14
2022-08-05T08:36:47.656Z,64.19
2022-08-05T08:38:03.328Z,64.39
2022-08-05T08:39:15.463Z,64.52
2022-08-05T08:40:24.579Z,64.42
2022-08-05T08:41:52.344Z,64.32
2022-08-05T08:44:57.883Z,64.43
2022-08-05T08:45:21.154Z,64.47
2022-08-05T08:46:15.605Z,64.65
2022-08-05T08:48:07.749Z,64.48
2022-08-05T08:50:07.583Z,64.62
2022-08-05T08:50:52.605Z,64.60
2022-08-05T08:52:15.516Z,64.59
2022-08-05T08:53:26.667Z,64.47
2022-08-05T08:54:38.346Z,64.78
2022-08-05T08:56:04.879Z,64.90
2022-08-05T08:57:15.692Z,64.92
2022-08-05T08:58:43.506Z,65.05
2022-08-05T09:00:00.383Z,65.00
2022-08-05T09:01:17.695Z,64.93
2022-08-05T09:02:27.107Z,64.88
2022-08-05T09:03:40.612Z,64.69
2022-08-05T09:05:16.884Z,64.55
2022-08-05T09:06:29.973Z,64.35
2022-08-05T09:07:39.698Z,64.53
2022-08-05T09:09:06.215Z,64.85
2022-08-05T09:10:17.263Z,65.01
2022-08-05T09:11:50.770Z,65.19
2022-08-05T09:13:04.789Z,65.11
2022-08-05T09:14:58.425Z,65.13
2022-08-05T09:15:44.092Z,64.94
2022-08-05T09:16:54.025Z,64.95
2022-08-05T09:18:03.673Z,64.92
2022-08-05T09:19:15.997Z,64.97
2022-08-05T09:20:37.378Z,64.80
2022-08-05T09:22:18.521Z,64.83
2022-08-05T09:23:22.529Z,64.70
2022-08-05T09:24:33.002Z,64.81
2022-08-05T09:26:02.613Z,65.12
2022-08-05T09:28:03.899Z,65.24
2022-08-05T09:29:16.259Z,65.18
2022-08-05T09:30:27.894Z,65.30
2022-08-05T09:32:40.043Z,65.25
2022-08-05T09:33:10.548Z,65.03
2022-08-05T09:34:27.474Z,64.98
2022-08-05T09:35:38.848Z,64.90
2022-08-05T09:36:59.224Z,65.00
2022-08-05T09:38:16.802Z,65.10
2022-08-05T09:39:45.146Z,65.01
2022-08-05T09:40:58.620Z,65.22
2022-08-05T09:42:11.393Z,65.29
2022-08-05T09:43:41.239Z,65.28
2022-08-05T09:44:56.018Z,65.39
2022-08-05T09:46:08.968Z,65.34
2022-08-05T09:47:22.613Z,65.43
2022-08-05T09:48:33.258Z,65.42
2022-08-05T09:50:01.074Z,65.18
2022-08-05T09:51:15.271Z,65.25
2022-08-05T09:52:34.939Z,65.22
2022-08-05T09:54:00.406Z,65.10
2022-08-05T09:55:58.716Z,65.21
2022-08-05T09:56:41.064Z,64.98
2022-08-05T09:58:12.492Z,65.14
2022-08-05T09:59:21.130Z,64.83
2022-08-05T10:00:30.842Z,65.30
2022-08-05T10:01:45.748Z,65.37
2022-08-05T10:02:58.319Z,65.45
2022-08-05T10:04:12.564Z,65.58
2022-08-05T10:05:32.680Z,65.59
2022-08-05T10:06:54.656Z,65.26
2022-08-05T10:08:37.061Z,65.24
2022-08-05T10:09:45.462Z,65.14
2022-08-05T10:10:58.325Z,65.33
2022-08-05T10:12:30.053Z,65.02
2022-08-05T10:13:47.861Z,64.91
2022-08-05T10:15:19.966Z,64.91
2022-08-05T10:16:38.050Z,65.32
2022-08-05T10:18:16.768Z,65.50
2022-08-05T10:19:31.955Z,65.66
2022-08-05T10:21:08.418Z,65.66
2022-08-05T10:22:29.985Z,65.64
2022-08-05T10:23:59.052Z,65.78
2022-08-05T10:25:11.387Z,65.67
2022-08-05T10:26:32.298Z,65.74
2022-08-05T10:28:13.002Z,65.72
2022-08-05T10:29:24.213Z,65.91
2022-08-05T10:32:47.844Z,66.15
2022-08-05T10:32:54.586Z,66.30
2022-08-05T10:33:52.393Z,66.34
2022-08-05T10:35:04.011Z,66.36
2022-08-05T10:36:13.571Z,66.45
2022-08-05T10:37:37.166Z,66.38
2022-08-05T10:38:53.735Z,66.28
2022-08-05T10:40:17.798Z,66.28
2022-08-05T10:41:50.194Z,66.35
2022-08-05T10:43:35.885Z,66.59
2022-08-05T10:44:50.602Z,66.71
2022-08-05T10:46:06.568Z,66.85
2022-08-05T10:47:27.015Z,66.93
2022-08-05T10:48:57.303Z,66.84
2022-08-05T10:50:31.549Z,66.97
2022-08-05T10:52:02.852Z,66.92
2022-08-05T10:53:45.390Z,67.05
2022-08-05T10:55:12.169Z,67.06
2022-08-05T10:56:31.153Z,67.17
2022-08-05T10:57:44.783Z,67.14
2022-08-05T10:59:12.316Z,67.26
2022-08-05T11:00:35.436Z,67.34
2022-08-05T11:02:05.366Z,67.30
2022-08-05T11:03:25.674Z,67.30
2022-08-05T11:04:46.286Z,67.32
2022-08-05T11:06:17.846Z,67.27
2022-08-05T11:07:33.056Z,67.03
2022-08-05T11:09:17.678Z,66.92
2022-08-05T11:10:29.248Z,67.03
2022-08-05T11:11:44.926Z,67.02
2022-08-05T11:13:03.489Z,67.24
2022-08-05T11:14:14.689Z,67.26
2022-08-05T11:16:00.407Z,67.36
2022-08-05T11:17:59.073Z,67.58
2022-08-05T11:20:10.755Z,67.62
2022-08-05T11:21:01.617Z,67.59
2022-08-05T11:22:42.573Z,67.52
2022-08-05T11:24:04.857Z,67.61
2022-08-05T11:26:04.487Z,67.70
2022-08-05T11:27:50.128Z,67.67
2022-08-05T11:29:12.700Z,67.63
2022-08-05T11:30:23.789Z,67.73
2022-08-05T11:31:58.788Z,67.83
2022-08-05T11:33:46.640Z,67.95
2022-08-05T11:34:59.641Z,67.92
2022-08-05T11:36:10.262Z,67.79
2022-08-05T11:38:26.403Z,67.60
2022-08-05T11:39:40.604Z,67.46
2022-08-05T11:41:12.678Z,67.52
2022-08-05T11:42:31.637Z,67.52
2022-08-05T11:44:04.725Z,67.63
2022-08-05T11:45:23.175Z,67.92
2022-08-05T11:47:09.361Z,67.84
2022-08-05T11:48:14.263Z,67.91
2022-08-05T11:49:26.340Z,67.81
2022-08-05T11:50:40.484Z,67.72
2022-08-05T11:51:52.591Z,67.51
2022-08-05T11:53:10.104Z,67.38
2022-08-05T11:54:33.720Z,67.44
2022-08-05T11:56:04.313Z,67.53
2022-08-05T11:57:24.258Z,67.36
2022-08-05T11:58:42.943Z,67.43
2022-08-05T12:00:03.692Z,67.50
2022-08-05T12:01:23.522Z,67.73
2022-08-05T12:02:36.168Z,67.79
2022-08-05T12:03:56.023Z,67.84
2022-08-05T12:05:18.078Z,67.71
2022-08-05T12:06:34.110Z,67.57
2022-08-05T12:08:03.553Z,67.62
2022-08-05T12:09:20.111Z,67.53
2022-08-05T12:10:43.301Z,67.23
2022-08-05T12:11:58.056Z,67.10
2022-08-05T12:13:28.031Z,67.27
2022-08-05T12:14:46.485Z,67.49
2022-08-05T12:15:58.210Z,67.52
2022-08-05T12:17:36.136Z,67.69
2022-08-05T12:18:49.414Z,67.62
2022-08-05T12:20:26.678Z,67.53
2022-08-05T12:21:39.091Z,67.53
2022-08-05T12:22:48.171Z,67.45
2022-08-05T12:24:07.258Z,67.41
2022-08-05T12:25:18.097Z,67.08
2022-08-05T12:26:39.490Z,67.02
2022-08-05T12:27:53.638Z,67.25
2022-08-05T12:29:03.307Z,67.24
2022-08-05T12:30:15.445Z,67.38
2022-08-05T12:31:33.124Z,67.69
2022-08-05T12:32:57.086Z,67.69
2022-08-05T12:34:23.760Z,67.92
2022-08-05T12:35:37.211Z,67.92
2022-08-05T12:36:48.781Z,67.79
2022-08-05T12:37:59.818Z,67.64
2022-08-05T12:39:13.474Z,67.56
2022-08-05T12:40:29.773Z,67.57
2022-08-05T12:41:43.785Z,67.44
2022-08-05T12:42:57.151Z,67.30
2022-08-05T12:44:28.520Z,67.28
2022-08-05T12:45:53.928Z,67.32
2022-08-05T12:47:04.439Z,67.66
2022-08-05T12:48:27.592Z,67.83
2022-08-05T12:50:03.065Z,67.79
2022-08-05T12:52:13.942Z,67.73
2022-08-05T12:53:01.675Z,67.70
2022-08-05T12:54:16.876Z,67.57
2022-08-05T12:55:35.238Z,67.50
2022-08-05T12:56:45.158Z,67.44
2022-08-05T12:58:48.312Z,67.39
2022-08-05T13:00:08.398Z,67.44
2022-08-05T13:02:00.556Z,67.72
2022-08-05T13:02:31.733Z,68.00
2022-08-05T13:03:42.312Z,68.03
2022-08-05T13:04:54.713Z,67.88
2022-08-05T13:06:04.237Z,67.72
2022-08-05T13:07:17.249Z,67.62
2022-08-05T13:08:26.968Z,67.60
2022-08-05T13:09:37.601Z,67.40
2022-08-05T13:10:50.131Z,67.41
2022-08-05T13:12:05.915Z,67.25
2022-08-05T13:14:06.379Z,67.27
2022-08-05T13:15:05.584Z,67.37
2022-08-05T13:16:25.105Z,67.58
2022-08-05T13:17:41.461Z,67.81
2022-08-05T13:18:58.993Z,67.83
2022-08-05T13:20:21.697Z,67.87
2022-08-05T13:21:37.628Z,67.66
2022-08-05T13:22:54.459Z,67.49
2022-08-05T13:24:04.394Z,67.38
2022-08-05T13:25:19.259Z,67.30
2022-08-05T13:26:32.075Z,67.38
2022-08-05T13:27:44.921Z,67.33
2022-08-05T13:29:03.037Z,67.24
2022-08-05T13:30:35.313Z,67.34
2022-08-05T13:32:04.282Z,67.39
2022-08-05T13:34:22.357Z,67.45
2022-08-05T13:34:46.538Z,67.44
2022-08-05T13:35:56.867Z,67.29
2022-08-05T13:37:14.246Z,67.22
2022-08-05T13:38:36.265Z,67.18
2022-08-05T13:40:16.156Z,66.86
2022-08-05T13:41:18.478Z,66.75
2022-08-05T13:42:28.800Z,66.65
2022-08-05T13:43:45.689Z,66.63
2022-08-05T13:45:03.890Z,66.45
2022-08-05T13:46:15.328Z,66.46
2022-08-05T13:47:34.583Z,66.37
2022-08-05T13:48:58.835Z,66.34
2022-08-05T13:50:16.248Z,66.41
2022-08-05T13:51:41.116Z,66.66
2022-08-05T13:52:50.199Z,66.80
2022-08-05T13:54:02.266Z,66.77
2022-08-05T13:55:11.768Z,66.72
2022-08-05T13:56:51.235Z,66.62
2022-08-05T13:58:01.043Z,66.40
2022-08-05T13:59:20.405Z,66.34
2022-08-05T14:00:34.538Z,66.22
2022-08-05T14:01:46.606Z,66.08
2022-08-05T14:03:10.345Z,66.08
2022-08-05T14:04:39.001Z,66.24
2022-08-05T14:06:25.765Z,66.25
2022-08-05T14:07:56.309Z,66.21
2022-08-05T14:08:46.887Z,66.24
2022-08-05T14:09:58.001Z,66.20
2022-08-05T14:11:20.545Z,65.93
2022-08-05T14:12:32.705Z,65.65
2022-08-05T14:13:41.765Z,65.41
2022-08-05T14:14:51.477Z,65.13
2022-08-05T14:16:06.816Z,65.06
2022-08-05T14:17:24.915Z,64.76
2022-08-05T14:18:34.377Z,64.57
2022-08-05T14:19:55.393Z,64.23
2022-08-05T14:22:07.909Z,63.92
2022-08-05T14:22:36.857Z,63.78
2022-08-05T14:23:45.337Z,63.73
2022-08-05T14:24:54.617Z,63.50
2022-08-05T14:26:04.953Z,63.25
2022-08-05T14:27:18.674Z,63.09
2022-08-05T14:28:33.624Z,62.94
2022-08-05T14:29:45.771Z,62.68
2022-08-05T14:31:02.990Z,62.37
2022-08-05T14:32:26.987Z,62.32
2022-08-05T14:33:59.473Z,62.25
2022-08-05T14:35:11.655Z,61.92
2022-08-05T14:36:21.585Z,61.83
2022-08-05T14:37:45.702Z,61.51
2022-08-05T14:38:58.981Z,61.09
2022-08-05T14:40:16.870Z,60.97
2022-08-05T14:41:28.190Z,60.67
2022-08-05T14:42:37.396Z,60.49
2022-08-05T14:44:02.597Z,60.28
2022-08-05T14:45:17.868Z,59.95
2022-08-05T14:46:29.550Z,59.31
2022-08-05T14:48:03.543Z,58.89
2022-08-05T14:49:11.154Z,58.55
2022-08-05T14:50:21.755Z,58.24
2022-08-05T14:51:37.979Z,57.57
2022-08-05T14:52:58.485Z,57.62
2022-08-05T14:54:27.172Z,57.20
2022-08-05T14:55:41.101Z,56.18
2022-08-05T14:56:51.008Z,55.44
2022-08-05T14:58:11.189Z,55.13
2022-08-05T14:59:23.601Z,54.59
2022-08-05T15:00:32.773Z,54.17
2022-08-05T15:01:48.072Z,53.63
2022-08-05T15:02:58.188Z,53.29
2022-08-05T15:04:13.336Z,52.80
2022-08-05T15:05:22.284Z,51.94
2022-08-05T15:06:39.082Z,50.11
2022-08-05T15:08:06.495Z,49.98
2022-08-05T15:09:51.201Z,48.49
2022-08-05T15:10:50.118Z,47.50
2022-08-05T15:12:01.031Z,47.13
2022-08-05T15:13:14.569Z,46.60
2022-08-05T15:14:35.704Z,46.29
2022-08-05T15:15:55.050Z,46.04
2022-08-05T15:17:09.759Z,45.09
2022-08-05T15:18:38.378Z,44.38
2022-08-05T15:19:49.202Z,43.75
2022-08-05T15:21:07.666Z,43.85
2022-08-05T15:22:19.759Z,42.50
2022-08-05T15:23:30.127Z,42.70
2022-08-05T15:24:39.652Z,43.04
2022-08-05T15:25:52.933Z,42.58
2022-08-05T15:27:08.920Z,41.83
2022-08-05T15:28:17.546Z,41.46
2022-08-05T15:29:29.787Z,40.55
2022-08-05T15:30:41.489Z,40.09
2022-08-05T15:31:53.065Z,39.97
2022-08-05T15:33:02.456Z,39.65
2022-08-05T15:34:31.606Z,39.85
2022-08-05T15:35:45.437Z,40.03
2022-08-05T15:36:56.946Z,39.77
2022-08-05T15:38:34.666Z,39.62
2022-08-05T15:40:59.388Z,39.53
2022-08-05T15:41:21.853Z,39.02
2022-08-05T15:42:56.641Z,38.65
2022-08-05T15:44:04.204Z,38.27
2022-08-05T15:45:18.686Z,38.00
2022-08-05T15:46:32.606Z,37.61
2022-08-05T15:47:43.508Z,37.45
2022-08-05T15:48:52.779Z,37.46
2022-08-05T15:50:09.959Z,37.00
2022-08-05T15:52:13.901Z,37.12
2022-08-05T15:53:03.906Z,37.27
2022-08-05T15:54:16.223Z,37.55
2022-08-05T15:55:24.934Z,37.88
2022-08-05T15:56:52.670Z,38.16
2022-08-05T15:58:03.142Z,38.07
2022-08-05T15:59:21.648Z,38.00
2022-08-05T16:00:48.153Z,37.74
2022-08-05T16:02:01.470Z,38.41
2022-08-05T16:03:13.970Z,38.62
2022-08-05T16:04:25.581Z,38.61
2022-08-05T16:05:34.006Z,38.49
2022-08-05T16:06:42.545Z,38.23
2022-08-05T16:07:52.743Z,37.54
2022-08-05T16:09:02.341Z,37.36
2022-08-05T16:10:12.414Z,37.25
2022-08-05T16:11:40.059Z,37.24
2022-08-05T16:12:50.609Z,37.27
2022-08-05T16:14:02.656Z,37.32
2022-08-05T16:15:18.542Z,37.32
2022-08-05T16:16:27.674Z,37.23
2022-08-05T16:17:40.173Z,36.84
2022-08-05T16:18:51.842Z,36.60
2022-08-05T16:20:07.777Z,36.43
2022-08-05T16:22:00.588Z,36.19
2022-08-05T16:22:51.862Z,35.70
2022-08-05T16:24:03.361Z,35.51
2022-08-05T16:25:15.138Z,35.14
2022-08-05T16:26:26.623Z,35.02
2022-08-05T16:27:59.937Z,34.98
2022-08-05T16:29:04.937Z,35.67
2022-08-05T16:30:26.485Z,35.69
2022-08-05T16:31:56.210Z,36.15
2022-08-05T16:33:09.867Z,35.98
2022-08-05T16:34:21.952Z,36.07
2022-08-05T16:35:33.436Z,35.90
2022-08-05T16:36:50.121Z,35.76
2022-08-05T16:38:10.587Z,35.94
2022-08-05T16:40:04.273Z,36.02
2022-08-05T16:41:00.238Z,35.97
2022-08-05T16:42:14.699Z,36.14
2022-08-05T16:43:27.947Z,35.85
2022-08-05T16:44:35.854Z,35.87
2022-08-05T16:46:05.010Z,35.99
2022-08-05T16:47:28.927Z,36.22
2022-08-05T16:48:47.579Z,36.29
2022-08-05T16:49:58.817Z,35.91
2022-08-05T16:51:11.235Z,35.39